Terminal Aerodrome Forecast
Issued by NWS

Home | Current Version | Previous Version | Text Only | Print | Product List | Glossary On
Versions: 1 2 3 4 5 6 7 8 9 10 11 12 13 14
232
FTUS45 KABQ 292032 AAA
TAFGUP
TAF AMD
KGUP 292032Z 2921/3018 33011KT P6SM VCSH BKN110
      TEMPO 2921/2923 VRB20G30KT -TSRA BKN090CB
     FM300300 17010KT P6SM BKN120
     FM300600 VRB04KT P6SM SCT150=

USA.gov is the U.S. government's official web portal to all federal, state and local government web resources and services.